sensor_id;sensor_type;location;lat;lon;timestamp;temperature;humidity
46508;DHT22;32223;53.654;10.014;2023-08-31T00:02:06;13.90;99.90
46508;DHT22;32223;53.654;10.014;2023-08-31T00:04:32;13.80;99.90
46508;DHT22;32223;53.654;10.014;2023-08-31T00:06:58;13.80;99.90
46508;DHT22;32223;53.654;10.014;2023-08-31T00:09:24;13.80;99.90
46508;DHT22;32223;53.654;10.014;2023-08-31T00:11:50;13.80;99.90
46508;DHT22;32223;53.654;10.014;2023-08-31T00:14:16;13.80;99.90
46508;DHT22;32223;53.654;10.014;2023-08-31T00:16:42;13.70;99.90
46508;DHT22;32223;53.654;10.014;2023-08-31T00:19:08;13.70;99.90
46508;DHT22;32223;53.654;10.014;2023-08-31T00:21:34;13.70;99.90
46508;DHT22;32223;53.654;10.014;2023-08-31T00:23:59;13.60;99.90
46508;DHT22;32223;53.654;10.014;2023-08-31T00:26:25;13.60;99.90
46508;DHT22;32223;53.654;10.014;2023-08-31T00:28:51;13.60;99.90
46508;DHT22;32223;53.654;10.014;2023-08-31T00:31:17;13.60;99.90
46508;DHT22;32223;53.654;10.014;2023-08-31T00:33:42;13.60;99.90
46508;DHT22;32223;53.654;10.014;2023-08-31T00:36:09;13.60;99.90
46508;DHT22;32223;53.654;10.014;2023-08-31T00:38:34;13.60;99.90
46508;DHT22;32223;53.654;10.014;2023-08-31T00:41:01;13.60;99.90
46508;DHT22;32223;53.654;10.014;2023-08-31T00:43:27;13.60;99.90
46508;DHT22;32223;53.654;10.014;2023-08-31T00:45:56;13.60;99.90
46508;DHT22;32223;53.654;10.014;2023-08-31T00:48:24;13.50;99.90
46508;DHT22;32223;53.654;10.014;2023-08-31T00:50:50;13.60;99.90
46508;DHT22;32223;53.654;10.014;2023-08-31T00:53:16;13.50;99.90
46508;DHT22;32223;53.654;10.014;2023-08-31T00:55:44;13.40;99.90
46508;DHT22;32223;53.654;10.014;2023-08-31T00:58:10;13.40;99.90
46508;DHT22;32223;53.654;10.014;2023-08-31T01:06:07;13.30;99.90
46508;DHT22;32223;53.654;10.014;2023-08-31T01:14:05;13.10;99.90
46508;DHT22;32223;53.654;10.014;2023-08-31T01:16:34;13.10;99.90
46508;DHT22;32223;53.654;10.014;2023-08-31T01:19:03;13.10;99.90
46508;DHT22;32223;53.654;10.014;2023-08-31T01:21:39;13.00;99.90
46508;DHT22;32223;53.654;10.014;2023-08-31T01:24:07;13.00;99.90
46508;DHT22;32223;53.654;10.014;2023-08-31T01:26:34;13.00;99.90
46508;DHT22;32223;53.654;10.014;2023-08-31T01:29:00;12.90;99.90
46508;DHT22;32223;53.654;10.014;2023-08-31T01:31:25;12.90;99.90
46508;DHT22;32223;53.654;10.014;2023-08-31T01:33:51;12.80;99.90
46508;DHT22;32223;53.654;10.014;2023-08-31T01:36:29;12.70;99.90
46508;DHT22;32223;53.654;10.014;2023-08-31T01:39:06;12.70;99.90
46508;DHT22;32223;53.654;10.014;2023-08-31T01:41:34;12.60;99.90
46508;DHT22;32223;53.654;10.014;2023-08-31T01:44:01;12.60;99.90
46508;DHT22;32223;53.654;10.014;2023-08-31T01:46:27;12.50;99.90
46508;DHT22;32223;53.654;10.014;2023-08-31T01:48:53;12.50;99.90
46508;DHT22;32223;53.654;10.014;2023-08-31T01:51:19;12.40;99.90
46508;DHT22;32223;53.654;10.014;2023-08-31T01:53:44;12.40;99.90
46508;DHT22;32223;53.654;10.014;2023-08-31T01:56:10;12.40;99.90
46508;DHT22;32223;53.654;10.014;2023-08-31T01:58:36;12.40;99.90
46508;DHT22;32223;53.654;10.014;2023-08-31T02:01:01;12.30;99.90
46508;DHT22;32223;53.654;10.014;2023-08-31T02:03:27;12.20;99.90
46508;DHT22;32223;53.654;10.014;2023-08-31T02:05:53;12.30;99.90
46508;DHT22;32223;53.654;10.014;2023-08-31T02:08:18;12.20;99.90
46508;DHT22;32223;53.654;10.014;2023-08-31T02:10:46;12.20;99.90
46508;DHT22;32223;53.654;10.014;2023-08-31T02:13:14;12.20;99.90
46508;DHT22;32223;53.654;10.014;2023-08-31T02:15:39;12.10;99.90
46508;DHT22;32223;53.654;10.014;2023-08-31T02:18:06;12.20;99.90
46508;DHT22;32223;53.654;10.014;2023-08-31T02:20:32;12.10;99.90
46508;DHT22;32223;53.654;10.014;2023-08-31T02:22:58;12.10;99.90
46508;DHT22;32223;53.654;10.014;2023-08-31T02:25:23;12.10;99.90
46508;DHT22;32223;53.654;10.014;2023-08-31T02:27:49;12.10;99.90
46508;DHT22;32223;53.654;10.014;2023-08-31T02:30:14;12.00;99.90
46508;DHT22;32223;53.654;10.014;2023-08-31T02:32:40;12.00;99.90
46508;DHT22;32223;53.654;10.014;2023-08-31T02:35:06;12.00;99.90
46508;DHT22;32223;53.654;10.014;2023-08-31T02:37:32;11.90;99.90
46508;DHT22;32223;53.654;10.014;2023-08-31T02:39:58;11.90;99.90
46508;DHT22;32223;53.654;10.014;2023-08-31T02:42:23;11.90;99.90
46508;DHT22;32223;53.654;10.014;2023-08-31T02:44:52;11.90;99.90
46508;DHT22;32223;53.654;10.014;2023-08-31T02:47:18;11.90;99.90
46508;DHT22;32223;53.654;10.014;2023-08-31T02:49:43;11.80;99.90
46508;DHT22;32223;53.654;10.014;2023-08-31T02:52:09;11.80;99.90
46508;DHT22;32223;53.654;10.014;2023-08-31T02:54:35;11.80;99.90
46508;DHT22;32223;53.654;10.014;2023-08-31T02:57:00;11.70;99.90
46508;DHT22;32223;53.654;10.014;2023-08-31T02:59:26;11.70;99.90
46508;DHT22;32223;53.654;10.014;2023-08-31T03:01:52;11.70;99.90
46508;DHT22;32223;53.654;10.014;2023-08-31T03:04:17;11.60;99.90
46508;DHT22;32223;53.654;10.014;2023-08-31T03:06:43;11.50;99.90
46508;DHT22;32223;53.654;10.014;2023-08-31T03:09:09;11.60;99.90
46508;DHT22;32223;53.654;10.014;2023-08-31T03:11:35;11.50;99.90
46508;DHT22;32223;53.654;10.014;2023-08-31T03:14:00;11.50;99.90
46508;DHT22;32223;53.654;10.014;2023-08-31T03:16:26;11.50;99.90
46508;DHT22;32223;53.654;10.014;2023-08-31T03:18:52;11.40;99.90
46508;DHT22;32223;53.654;10.014;2023-08-31T03:21:17;11.40;99.90
46508;DHT22;32223;53.654;10.014;2023-08-31T03:23:43;11.40;99.90
46508;DHT22;32223;53.654;10.014;2023-08-31T03:26:09;11.40;99.90
46508;DHT22;32223;53.654;10.014;2023-08-31T03:28:35;11.40;99.90
46508;DHT22;32223;53.654;10.014;2023-08-31T03:31:01;11.30;99.90
46508;DHT22;32223;53.654;10.014;2023-08-31T03:33:26;11.30;99.90
46508;DHT22;32223;53.654;10.014;2023-08-31T03:35:59;11.30;99.90
46508;DHT22;32223;53.654;10.014;2023-08-31T03:38:24;11.30;99.90
46508;DHT22;32223;53.654;10.014;2023-08-31T03:40:54;11.30;99.90
46508;DHT22;32223;53.654;10.014;2023-08-31T03:43:20;11.20;99.90
46508;DHT22;32223;53.654;10.014;2023-08-31T03:45:46;11.20;99.90
46508;DHT22;32223;53.654;10.014;2023-08-31T03:48:11;11.20;99.90
46508;DHT22;32223;53.654;10.014;2023-08-31T03:50:37;11.20;99.90
46508;DHT22;32223;53.654;10.014;2023-08-31T03:53:03;11.20;99.90
46508;DHT22;32223;53.654;10.014;2023-08-31T03:55:28;11.20;99.90
46508;DHT22;32223;53.654;10.014;2023-08-31T03:57:54;11.20;99.90
46508;DHT22;32223;53.654;10.014;2023-08-31T04:00:20;11.20;99.90
46508;DHT22;32223;53.654;10.014;2023-08-31T04:02:45;11.20;99.90
46508;DHT22;32223;53.654;10.014;2023-08-31T04:05:12;11.20;99.90
46508;DHT22;32223;53.654;10.014;2023-08-31T04:07:40;11.10;99.90
46508;DHT22;32223;53.654;10.014;2023-08-31T04:10:06;11.20;99.90
46508;DHT22;32223;53.654;10.014;2023-08-31T04:12:33;11.10;99.90
46508;DHT22;32223;53.654;10.014;2023-08-31T04:15:00;11.10;99.90
46508;DHT22;32223;53.654;10.014;2023-08-31T04:17:25;11.00;99.90
46508;DHT22;32223;53.654;10.014;2023-08-31T04:19:51;11.00;99.90
46508;DHT22;32223;53.654;10.014;2023-08-31T04:22:17;11.00;99.90
46508;DHT22;32223;53.654;10.014;2023-08-31T04:24:43;11.00;99.90
46508;DHT22;32223;53.654;10.014;2023-08-31T04:27:08;10.90;99.90
46508;DHT22;32223;53.654;10.014;2023-08-31T04:29:34;10.90;99.90
46508;DHT22;32223;53.654;10.014;2023-08-31T04:32:00;10.90;99.90
46508;DHT22;32223;53.654;10.014;2023-08-31T04:34:25;10.90;99.90
46508;DHT22;32223;53.654;10.014;2023-08-31T04:36:52;10.90;99.90
46508;DHT22;32223;53.654;10.014;2023-08-31T04:39:17;10.80;99.90
46508;DHT22;32223;53.654;10.014;2023-08-31T04:41:43;10.80;99.90
46508;DHT22;32223;53.654;10.014;2023-08-31T04:44:09;10.80;99.90
46508;DHT22;32223;53.654;10.014;2023-08-31T04:46:34;10.80;99.90
46508;DHT22;32223;53.654;10.014;2023-08-31T04:49:00;10.90;99.90
46508;DHT22;32223;53.654;10.014;2023-08-31T04:51:34;10.90;99.90
46508;DHT22;32223;53.654;10.014;2023-08-31T04:54:00;10.90;99.90
46508;DHT22;32223;53.654;10.014;2023-08-31T04:56:30;11.00;99.90
46508;DHT22;32223;53.654;10.014;2023-08-31T04:58:57;11.00;99.90
46508;DHT22;32223;53.654;10.014;2023-08-31T05:01:23;10.90;99.90
46508;DHT22;32223;53.654;10.014;2023-08-31T05:03:48;11.00;99.90
46508;DHT22;32223;53.654;10.014;2023-08-31T05:06:14;11.00;99.90
46508;DHT22;32223;53.654;10.014;2023-08-31T05:08:39;11.00;99.90
46508;DHT22;32223;53.654;10.014;2023-08-31T05:11:05;11.00;99.90
46508;DHT22;32223;53.654;10.014;2023-08-31T05:13:30;11.00;99.90
46508;DHT22;32223;53.654;10.014;2023-08-31T05:15:56;11.00;99.90
46508;DHT22;32223;53.654;10.014;2023-08-31T05:18:22;11.00;99.90
46508;DHT22;32223;53.654;10.014;2023-08-31T05:20:47;11.00;99.90
46508;DHT22;32223;53.654;10.014;2023-08-31T05:23:14;11.10;99.90
46508;DHT22;32223;53.654;10.014;2023-08-31T05:25:44;11.10;99.90
46508;DHT22;32223;53.654;10.014;2023-08-31T05:28:09;11.10;99.90
46508;DHT22;32223;53.654;10.014;2023-08-31T05:30:35;11.10;99.90
46508;DHT22;32223;53.654;10.014;2023-08-31T05:33:01;11.20;99.90
46508;DHT22;32223;53.654;10.014;2023-08-31T05:35:27;11.20;99.90
46508;DHT22;32223;53.654;10.014;2023-08-31T05:37:52;11.20;99.90
46508;DHT22;32223;53.654;10.014;2023-08-31T05:40:18;11.30;99.90
46508;DHT22;32223;53.654;10.014;2023-08-31T05:42:44;11.40;99.90
46508;DHT22;32223;53.654;10.014;2023-08-31T05:45:11;11.40;99.90
46508;DHT22;32223;53.654;10.014;2023-08-31T05:47:36;11.40;99.90
46508;DHT22;32223;53.654;10.014;2023-08-31T05:50:02;11.40;99.90
46508;DHT22;32223;53.654;10.014;2023-08-31T05:52:28;11.40;99.90
46508;DHT22;32223;53.654;10.014;2023-08-31T05:54:54;11.50;99.90
46508;DHT22;32223;53.654;10.014;2023-08-31T05:57:19;11.50;99.90
46508;DHT22;32223;53.654;10.014;2023-08-31T05:59:47;11.60;99.90
46508;DHT22;32223;53.654;10.014;2023-08-31T06:02:13;11.60;99.90
46508;DHT22;32223;53.654;10.014;2023-08-31T06:04:38;11.70;99.90
46508;DHT22;32223;53.654;10.014;2023-08-31T06:07:04;11.70;99.90
46508;DHT22;32223;53.654;10.014;2023-08-31T06:09:30;11.70;99.90
46508;DHT22;32223;53.654;10.014;2023-08-31T06:11:55;11.80;99.90
46508;DHT22;32223;53.654;10.014;2023-08-31T06:14:21;11.80;99.90
46508;DHT22;32223;53.654;10.014;2023-08-31T06:16:46;11.80;99.90
46508;DHT22;32223;53.654;10.014;2023-08-31T06:19:12;11.90;99.90
46508;DHT22;32223;53.654;10.014;2023-08-31T06:21:41;12.00;99.90
46508;DHT22;32223;53.654;10.014;2023-08-31T06:24:07;12.00;99.90
46508;DHT22;32223;53.654;10.014;2023-08-31T06:26:35;12.10;99.90
46508;DHT22;32223;53.654;10.014;2023-08-31T06:29:01;12.10;99.90
46508;DHT22;32223;53.654;10.014;2023-08-31T06:31:29;12.20;99.90
46508;DHT22;32223;53.654;10.014;2023-08-31T06:33:54;12.30;99.90
46508;DHT22;32223;53.654;10.014;2023-08-31T06:36:20;12.40;99.90
46508;DHT22;32223;53.654;10.014;2023-08-31T06:38:46;12.50;99.90
46508;DHT22;32223;53.654;10.014;2023-08-31T06:41:11;12.50;99.90
46508;DHT22;32223;53.654;10.014;2023-08-31T06:43:37;12.70;99.90
46508;DHT22;32223;53.654;10.014;2023-08-31T06:46:03;12.80;99.90
46508;DHT22;32223;53.654;10.014;2023-08-31T06:48:28;12.90;99.90
46508;DHT22;32223;53.654;10.014;2023-08-31T06:50:54;12.90;99.90
46508;DHT22;32223;53.654;10.014;2023-08-31T06:53:20;13.00;99.90
46508;DHT22;32223;53.654;10.014;2023-08-31T06:55:45;13.10;99.90
46508;DHT22;32223;53.654;10.014;2023-08-31T06:58:11;13.10;99.90
46508;DHT22;32223;53.654;10.014;2023-08-31T07:00:36;13.10;99.90
46508;DHT22;32223;53.654;10.014;2023-08-31T07:03:02;13.20;99.90
46508;DHT22;32223;53.654;10.014;2023-08-31T07:05:33;13.20;99.90
46508;DHT22;32223;53.654;10.014;2023-08-31T07:08:00;13.30;99.90
46508;DHT22;32223;53.654;10.014;2023-08-31T07:10:27;13.40;99.90
46508;DHT22;32223;53.654;10.014;2023-08-31T07:12:53;13.40;99.90
46508;DHT22;32223;53.654;10.014;2023-08-31T07:15:18;13.40;99.90
46508;DHT22;32223;53.654;10.014;2023-08-31T07:17:44;13.40;99.90
46508;DHT22;32223;53.654;10.014;2023-08-31T07:20:11;13.50;99.90
46508;DHT22;32223;53.654;10.014;2023-08-31T07:22:37;13.50;99.90
46508;DHT22;32223;53.654;10.014;2023-08-31T07:25:04;13.60;99.90
46508;DHT22;32223;53.654;10.014;2023-08-31T07:27:29;13.70;99.90
46508;DHT22;32223;53.654;10.014;2023-08-31T07:29:55;13.80;99.90
46508;DHT22;32223;53.654;10.014;2023-08-31T07:32:21;13.90;99.90
46508;DHT22;32223;53.654;10.014;2023-08-31T07:34:47;13.90;99.90
46508;DHT22;32223;53.654;10.014;2023-08-31T07:37:13;14.00;99.90
46508;DHT22;32223;53.654;10.014;2023-08-31T07:39:38;14.10;99.90
46508;DHT22;32223;53.654;10.014;2023-08-31T07:42:05;14.20;99.90
46508;DHT22;32223;53.654;10.014;2023-08-31T07:44:31;14.40;99.90
46508;DHT22;32223;53.654;10.014;2023-08-31T07:46:56;14.40;99.90
46508;DHT22;32223;53.654;10.014;2023-08-31T07:49:22;14.50;99.90
46508;DHT22;32223;53.654;10.014;2023-08-31T07:51:48;14.60;99.90
46508;DHT22;32223;53.654;10.014;2023-08-31T07:54:24;14.70;99.90
46508;DHT22;32223;53.654;10.014;2023-08-31T07:56:50;14.80;99.90
46508;DHT22;32223;53.654;10.014;2023-08-31T07:59:16;14.80;99.90
46508;DHT22;32223;53.654;10.014;2023-08-31T08:01:42;14.90;99.90
46508;DHT22;32223;53.654;10.014;2023-08-31T08:04:08;15.00;99.90
46508;DHT22;32223;53.654;10.014;2023-08-31T08:06:34;15.10;99.90
46508;DHT22;32223;53.654;10.014;2023-08-31T08:08:59;15.20;99.90
46508;DHT22;32223;53.654;10.014;2023-08-31T08:11:25;15.30;99.90
46508;DHT22;32223;53.654;10.014;2023-08-31T08:13:51;15.30;99.90
46508;DHT22;32223;53.654;10.014;2023-08-31T08:16:16;15.20;99.90
46508;DHT22;32223;53.654;10.014;2023-08-31T08:18:42;15.20;99.90
46508;DHT22;32223;53.654;10.014;2023-08-31T08:21:07;15.30;99.90
46508;DHT22;32223;53.654;10.014;2023-08-31T08:23:33;15.40;99.90
46508;DHT22;32223;53.654;10.014;2023-08-31T08:25:58;15.40;99.90
46508;DHT22;32223;53.654;10.014;2023-08-31T08:28:27;15.50;99.90
46508;DHT22;32223;53.654;10.014;2023-08-31T08:30:54;15.50;99.90
46508;DHT22;32223;53.654;10.014;2023-08-31T08:33:20;15.40;99.90
46508;DHT22;32223;53.654;10.014;2023-08-31T08:35:46;15.50;99.90
46508;DHT22;32223;53.654;10.014;2023-08-31T08:38:11;15.60;99.90
46508;DHT22;32223;53.654;10.014;2023-08-31T08:40:37;15.70;99.90
46508;DHT22;32223;53.654;10.014;2023-08-31T08:43:07;15.80;99.90
46508;DHT22;32223;53.654;10.014;2023-08-31T08:45:37;15.90;99.90
46508;DHT22;32223;53.654;10.014;2023-08-31T08:48:06;15.90;99.90
46508;DHT22;32223;53.654;10.014;2023-08-31T08:50:33;15.90;99.90
46508;DHT22;32223;53.654;10.014;2023-08-31T08:53:01;15.90;99.90
46508;DHT22;32223;53.654;10.014;2023-08-31T08:55:27;15.90;99.90
46508;DHT22;32223;53.654;10.014;2023-08-31T08:57:53;16.00;99.90
46508;DHT22;32223;53.654;10.014;2023-08-31T09:00:19;16.20;99.90
46508;DHT22;32223;53.654;10.014;2023-08-31T09:02:44;16.40;99.90
46508;DHT22;32223;53.654;10.014;2023-08-31T09:05:11;16.70;99.90
46508;DHT22;32223;53.654;10.014;2023-08-31T09:07:36;17.00;99.90
46508;DHT22;32223;53.654;10.014;2023-08-31T09:10:02;17.10;99.90
46508;DHT22;32223;53.654;10.014;2023-08-31T09:12:29;17.10;99.90
46508;DHT22;32223;53.654;10.014;2023-08-31T09:15:02;17.10;99.90
46508;DHT22;32223;53.654;10.014;2023-08-31T09:17:40;17.40;99.90
46508;DHT22;32223;53.654;10.014;2023-08-31T09:20:07;17.30;99.90
46508;DHT22;32223;53.654;10.014;2023-08-31T09:22:34;17.20;99.90
46508;DHT22;32223;53.654;10.014;2023-08-31T09:25:00;17.20;99.90
46508;DHT22;32223;53.654;10.014;2023-08-31T09:27:25;17.10;99.90
46508;DHT22;32223;53.654;10.014;2023-08-31T09:29:54;17.20;99.90
46508;DHT22;32223;53.654;10.014;2023-08-31T09:32:20;17.00;99.90
46508;DHT22;32223;53.654;10.014;2023-08-31T09:34:45;17.10;99.90
46508;DHT22;32223;53.654;10.014;2023-08-31T09:37:15;17.20;99.90
46508;DHT22;32223;53.654;10.014;2023-08-31T09:39:41;17.20;99.90
46508;DHT22;32223;53.654;10.014;2023-08-31T09:42:07;17.20;99.90
46508;DHT22;32223;53.654;10.014;2023-08-31T09:44:33;17.20;99.90
46508;DHT22;32223;53.654;10.014;2023-08-31T09:46:58;17.30;99.90
46508;DHT22;32223;53.654;10.014;2023-08-31T09:49:25;17.50;99.90
46508;DHT22;32223;53.654;10.014;2023-08-31T09:51:51;17.60;99.90
46508;DHT22;32223;53.654;10.014;2023-08-31T09:54:18;17.60;99.90
46508;DHT22;32223;53.654;10.014;2023-08-31T09:56:45;17.30;99.90
46508;DHT22;32223;53.654;10.014;2023-08-31T09:59:13;17.40;99.90
46508;DHT22;32223;53.654;10.014;2023-08-31T10:01:45;17.30;99.90
46508;DHT22;32223;53.654;10.014;2023-08-31T10:04:11;17.20;99.90
46508;DHT22;32223;53.654;10.014;2023-08-31T10:06:39;17.20;99.90
46508;DHT22;32223;53.654;10.014;2023-08-31T10:09:05;16.90;99.90
46508;DHT22;32223;53.654;10.014;2023-08-31T10:11:32;16.80;99.90
46508;DHT22;32223;53.654;10.014;2023-08-31T10:13:58;16.60;99.90
46508;DHT22;32223;53.654;10.014;2023-08-31T10:16:27;16.50;99.90
46508;DHT22;32223;53.654;10.014;2023-08-31T10:18:55;16.60;99.90
46508;DHT22;32223;53.654;10.014;2023-08-31T10:21:21;16.70;99.90
46508;DHT22;32223;53.654;10.014;2023-08-31T10:23:48;16.90;99.90
46508;DHT22;32223;53.654;10.014;2023-08-31T10:26:31;17.10;99.90
46508;DHT22;32223;53.654;10.014;2023-08-31T10:28:58;17.30;99.90
46508;DHT22;32223;53.654;10.014;2023-08-31T10:31:27;17.40;99.90
46508;DHT22;32223;53.654;10.014;2023-08-31T10:34:00;17.60;99.90
46508;DHT22;32223;53.654;10.014;2023-08-31T10:39:38;17.80;99.90
46508;DHT22;32223;53.654;10.014;2023-08-31T10:42:04;18.10;99.90
46508;DHT22;32223;53.654;10.014;2023-08-31T10:44:34;18.40;99.90
46508;DHT22;32223;53.654;10.014;2023-08-31T10:47:02;18.50;99.90
46508;DHT22;32223;53.654;10.014;2023-08-31T10:49:29;18.80;99.90
46508;DHT22;32223;53.654;10.014;2023-08-31T10:54:40;19.20;99.90
46508;DHT22;32223;53.654;10.014;2023-08-31T10:57:06;19.00;99.90
46508;DHT22;32223;53.654;10.014;2023-08-31T10:59:49;19.00;99.90
46508;DHT22;32223;53.654;10.014;2023-08-31T11:04:59;18.50;99.90
46508;DHT22;32223;53.654;10.014;2023-08-31T11:07:27;18.30;99.90
46508;DHT22;32223;53.654;10.014;2023-08-31T11:10:24;18.30;99.90
46508;DHT22;32223;53.654;10.014;2023-08-31T11:12:54;18.50;99.90
46508;DHT22;32223;53.654;10.014;2023-08-31T11:15:21;18.90;99.90
46508;DHT22;32223;53.654;10.014;2023-08-31T11:17:49;19.20;99.90
46508;DHT22;32223;53.654;10.014;2023-08-31T11:20:17;19.40;99.90
46508;DHT22;32223;53.654;10.014;2023-08-31T11:22:48;19.50;99.90
46508;DHT22;32223;53.654;10.014;2023-08-31T11:25:20;19.30;99.90
46508;DHT22;32223;53.654;10.014;2023-08-31T11:28:02;19.20;99.90
46508;DHT22;32223;53.654;10.014;2023-08-31T11:30:32;19.00;99.90
46508;DHT22;32223;53.654;10.014;2023-08-31T11:33:08;18.90;99.90
46508;DHT22;32223;53.654;10.014;2023-08-31T11:35:39;19.00;99.90
46508;DHT22;32223;53.654;10.014;2023-08-31T11:38:08;19.10;99.90
46508;DHT22;32223;53.654;10.014;2023-08-31T11:40:33;19.30;99.90
46508;DHT22;32223;53.654;10.014;2023-08-31T11:43:00;19.30;99.90
46508;DHT22;32223;53.654;10.014;2023-08-31T11:45:26;18.90;99.90
46508;DHT22;32223;53.654;10.014;2023-08-31T11:47:53;18.70;99.90
46508;DHT22;32223;53.654;10.014;2023-08-31T11:50:20;18.60;99.90
46508;DHT22;32223;53.654;10.014;2023-08-31T11:52:47;18.70;99.90
46508;DHT22;32223;53.654;10.014;2023-08-31T11:55:15;19.00;99.90
46508;DHT22;32223;53.654;10.014;2023-08-31T11:57:51;19.10;99.90
46508;DHT22;32223;53.654;10.014;2023-08-31T12:00:18;18.90;99.90
46508;DHT22;32223;53.654;10.014;2023-08-31T12:02:45;18.70;99.90
46508;DHT22;32223;53.654;10.014;2023-08-31T12:05:14;18.60;99.90
46508;DHT22;32223;53.654;10.014;2023-08-31T12:07:40;18.70;99.90
46508;DHT22;32223;53.654;10.014;2023-08-31T12:10:07;18.70;99.90
46508;DHT22;32223;53.654;10.014;2023-08-31T12:12:33;18.50;99.90
46508;DHT22;32223;53.654;10.014;2023-08-31T12:15:01;18.50;99.90
46508;DHT22;32223;53.654;10.014;2023-08-31T12:17:29;18.50;99.90
46508;DHT22;32223;53.654;10.014;2023-08-31T12:20:03;18.90;99.90
46508;DHT22;32223;53.654;10.014;2023-08-31T12:22:32;19.30;99.90
46508;DHT22;32223;53.654;10.014;2023-08-31T12:24:58;19.90;99.90
46508;DHT22;32223;53.654;10.014;2023-08-31T12:27:23;19.90;99.90
46508;DHT22;32223;53.654;10.014;2023-08-31T12:29:49;19.70;99.90
46508;DHT22;32223;53.654;10.014;2023-08-31T12:32:16;19.50;99.90
46508;DHT22;32223;53.654;10.014;2023-08-31T12:34:43;19.60;99.90
46508;DHT22;32223;53.654;10.014;2023-08-31T12:37:09;19.30;99.90
46508;DHT22;32223;53.654;10.014;2023-08-31T12:39:34;19.00;99.90
46508;DHT22;32223;53.654;10.014;2023-08-31T12:42:00;18.50;99.90
46508;DHT22;32223;53.654;10.014;2023-08-31T12:44:25;18.20;99.90
46508;DHT22;32223;53.654;10.014;2023-08-31T12:46:52;17.90;99.90
46508;DHT22;32223;53.654;10.014;2023-08-31T12:49:18;17.50;99.90
46508;DHT22;32223;53.654;10.014;2023-08-31T12:51:45;17.10;99.90
46508;DHT22;32223;53.654;10.014;2023-08-31T12:54:11;16.90;99.90
46508;DHT22;32223;53.654;10.014;2023-08-31T12:56:37;16.60;99.90
46508;DHT22;32223;53.654;10.014;2023-08-31T12:59:03;16.60;99.90
46508;DHT22;32223;53.654;10.014;2023-08-31T13:01:31;16.40;99.90
46508;DHT22;32223;53.654;10.014;2023-08-31T13:03:59;16.30;99.90
46508;DHT22;32223;53.654;10.014;2023-08-31T13:06:24;16.30;99.90
46508;DHT22;32223;53.654;10.014;2023-08-31T13:08:52;16.40;99.90
46508;DHT22;32223;53.654;10.014;2023-08-31T13:11:17;16.70;99.90
46508;DHT22;32223;53.654;10.014;2023-08-31T13:13:48;16.90;99.90
46508;DHT22;32223;53.654;10.014;2023-08-31T13:16:14;17.10;99.90
46508;DHT22;32223;53.654;10.014;2023-08-31T13:18:40;17.40;99.90
46508;DHT22;32223;53.654;10.014;2023-08-31T13:21:05;18.00;99.90
46508;DHT22;32223;53.654;10.014;2023-08-31T13:23:31;18.70;99.90
46508;DHT22;32223;53.654;10.014;2023-08-31T13:25:57;19.30;99.90
46508;DHT22;32223;53.654;10.014;2023-08-31T13:28:22;19.70;99.90
46508;DHT22;32223;53.654;10.014;2023-08-31T13:30:48;20.30;99.90
46508;DHT22;32223;53.654;10.014;2023-08-31T13:33:14;21.30;99.90
46508;DHT22;32223;53.654;10.014;2023-08-31T13:35:40;22.00;99.90
46508;DHT22;32223;53.654;10.014;2023-08-31T13:38:06;22.00;99.90
46508;DHT22;32223;53.654;10.014;2023-08-31T13:40:34;21.70;99.90
46508;DHT22;32223;53.654;10.014;2023-08-31T13:43:00;21.80;99.90
46508;DHT22;32223;53.654;10.014;2023-08-31T13:45:29;23.00;99.90
46508;DHT22;32223;53.654;10.014;2023-08-31T13:47:56;24.00;99.90
46508;DHT22;32223;53.654;10.014;2023-08-31T13:50:22;25.10;99.90
46508;DHT22;32223;53.654;10.014;2023-08-31T13:52:48;26.20;97.90
46508;DHT22;32223;53.654;10.014;2023-08-31T13:55:14;26.30;95.50
46508;DHT22;32223;53.654;10.014;2023-08-31T13:57:41;26.80;94.30
46508;DHT22;32223;53.654;10.014;2023-08-31T14:00:08;27.00;93.40
46508;DHT22;32223;53.654;10.014;2023-08-31T14:02:37;27.00;92.90
46508;DHT22;32223;53.654;10.014;2023-08-31T14:05:04;26.50;92.60
46508;DHT22;32223;53.654;10.014;2023-08-31T14:07:32;25.30;93.20
46508;DHT22;32223;53.654;10.014;2023-08-31T14:09:58;24.60;94.20
46508;DHT22;32223;53.654;10.014;2023-08-31T14:12:24;24.10;94.70
46508;DHT22;32223;53.654;10.014;2023-08-31T14:14:51;23.50;96.40
46508;DHT22;32223;53.654;10.014;2023-08-31T14:17:16;22.80;96.30
46508;DHT22;32223;53.654;10.014;2023-08-31T14:19:42;22.30;97.60
46508;DHT22;32223;53.654;10.014;2023-08-31T14:22:08;21.80;98.80
46508;DHT22;32223;53.654;10.014;2023-08-31T14:24:35;21.60;99.60
46508;DHT22;32223;53.654;10.014;2023-08-31T14:27:02;21.60;99.90
46508;DHT22;32223;53.654;10.014;2023-08-31T14:29:28;22.30;99.90
46508;DHT22;32223;53.654;10.014;2023-08-31T14:31:54;22.50;99.60
46508;DHT22;32223;53.654;10.014;2023-08-31T14:34:21;22.10;99.90
46508;DHT22;32223;53.654;10.014;2023-08-31T14:36:46;21.80;99.90
46508;DHT22;32223;53.654;10.014;2023-08-31T14:39:12;21.80;99.90
46508;DHT22;32223;53.654;10.014;2023-08-31T14:41:38;21.60;99.90
46508;DHT22;32223;53.654;10.014;2023-08-31T14:44:04;21.10;99.90
46508;DHT22;32223;53.654;10.014;2023-08-31T14:46:29;20.70;99.90
46508;DHT22;32223;53.654;10.014;2023-08-31T14:48:55;20.20;99.90
46508;DHT22;32223;53.654;10.014;2023-08-31T14:51:20;19.80;99.90
46508;DHT22;32223;53.654;10.014;2023-08-31T14:53:46;19.50;99.90
46508;DHT22;32223;53.654;10.014;2023-08-31T14:56:12;19.50;99.90
46508;DHT22;32223;53.654;10.014;2023-08-31T14:58:37;19.40;99.90
46508;DHT22;32223;53.654;10.014;2023-08-31T15:01:03;19.40;99.90
46508;DHT22;32223;53.654;10.014;2023-08-31T15:03:28;19.30;99.90
46508;DHT22;32223;53.654;10.014;2023-08-31T15:05:55;19.10;99.90
46508;DHT22;32223;53.654;10.014;2023-08-31T15:08:22;19.00;99.90
46508;DHT22;32223;53.654;10.014;2023-08-31T15:11:00;19.20;99.90
46508;DHT22;32223;53.654;10.014;2023-08-31T15:13:26;19.50;99.90
46508;DHT22;32223;53.654;10.014;2023-08-31T15:15:52;20.10;99.90
46508;DHT22;32223;53.654;10.014;2023-08-31T15:18:17;20.20;99.90
46508;DHT22;32223;53.654;10.014;2023-08-31T15:20:43;20.00;99.90
46508;DHT22;32223;53.654;10.014;2023-08-31T15:23:08;20.80;99.90
46508;DHT22;32223;53.654;10.014;2023-08-31T15:25:34;21.50;99.90
46508;DHT22;32223;53.654;10.014;2023-08-31T15:27:59;21.30;99.90
46508;DHT22;32223;53.654;10.014;2023-08-31T15:30:25;20.90;99.90
46508;DHT22;32223;53.654;10.014;2023-08-31T15:32:50;20.40;99.90